Time;durP1;ratioP1;P1;durP2;ratioP2;P2;SDS_P1;SDS_P2;PMS_P1;PMS_P2;Temp;Humidity;BMP_temperature;BMP_pressure;BME280_temperature;BME280_humidity;BME280_pressure;Samples;Min_cycle;Max_cycle;Signal;HPM_P1;HPM_P2
2022/03/06 00:01:32;;;;;;;10.75;6.70;;;-2.10;99.90;;;;;;5075622;28;20044;-82
2022/03/06 00:03:59;;;;;;;13.50;7.80;;;-2.10;99.90;;;;;;5075174;28;20466;-82
2022/03/06 00:06:26;;;;;;;13.27;7.47;;;-2.10;99.90;;;;;;5093331;28;20116;-82
2022/03/06 00:08:53;;;;;;;9.38;7.13;;;-2.20;99.90;;;;;;5075544;28;20051;-82
2022/03/06 00:11:19;;;;;;;9.13;6.78;;;-2.30;99.90;;;;;;5075172;28;20147;-82
2022/03/06 00:13:46;;;;;;;12.20;7.40;;;-2.30;99.90;;;;;;5075128;28;20139;-83
2022/03/06 00:16:13;;;;;;;9.88;6.40;;;-2.40;99.90;;;;;;5075351;28;20139;-83
2022/03/06 00:18:40;;;;;;;9.43;6.40;;;-2.40;99.90;;;;;;5076668;28;20496;-83
2022/03/06 00:21:06;;;;;;;17.05;7.03;;;-2.20;99.90;;;;;;5078842;28;20051;-83
2022/03/06 00:23:34;;;;;;;10.00;6.25;;;-2.10;99.90;;;;;;5079411;28;20130;-83
2022/03/06 00:26:01;;;;;;;14.00;7.78;;;-2.10;99.90;;;;;;5078494;28;20048;-83
2022/03/06 00:28:28;;;;;;;15.45;8.02;;;-2.10;99.90;;;;;;5078774;28;20116;-83
2022/03/06 00:30:55;;;;;;;16.05;8.18;;;-2.00;99.90;;;;;;5078787;28;20143;-83
2022/03/06 00:33:22;;;;;;;16.88;8.10;;;-2.00;99.90;;;;;;5078744;28;20054;-83
2022/03/06 00:35:49;;;;;;;14.77;7.05;;;-1.80;99.90;;;;;;5078965;28;20500;-83
2022/03/06 00:38:15;;;;;;;14.18;6.80;;;-1.70;99.90;;;;;;5078749;28;20155;-83
2022/03/06 00:40:44;;;;;;;10.18;6.90;;;-1.60;99.90;;;;;;5078931;28;20058;-83
2022/03/06 00:43:12;;;;;;;10.93;7.60;;;-1.60;99.90;;;;;;5078861;28;20119;-83
2022/03/06 00:45:39;;;;;;;12.70;6.95;;;-1.50;99.90;;;;;;5078707;28;20126;-83
2022/03/06 00:48:06;;;;;;;13.85;6.90;;;-1.40;99.90;;;;;;5079410;28;20048;-83
2022/03/06 00:50:38;;;;;;;9.77;6.55;;;-1.40;99.90;;;;;;5079683;28;20080;-83
2022/03/06 00:53:08;;;;;;;12.60;6.50;;;-1.30;99.90;;;;;;5079119;28;20397;-83
2022/03/06 00:55:35;;;;;;;10.57;6.03;;;-1.20;99.90;;;;;;5078959;28;20131;-83
2022/03/06 00:58:05;;;;;;;10.75;7.05;;;-1.20;99.90;;;;;;5079255;28;20469;-83
2022/03/06 01:00:39;;;;;;;9.25;6.10;;;-1.10;99.90;;;;;;5079012;28;20044;-83
2022/03/06 01:03:12;;;;;;;8.25;6.35;;;-1.10;99.90;;;;;;5079026;28;20040;-83
2022/03/06 01:05:39;;;;;;;11.40;6.53;;;-1.10;99.90;;;;;;5078758;28;20048;-83
2022/03/06 01:08:06;;;;;;;10.38;6.20;;;-1.10;99.90;;;;;;5078603;28;20062;-83
2022/03/06 01:10:36;;;;;;;9.70;6.10;;;-1.10;99.90;;;;;;5096303;28;20052;-83
2022/03/06 01:13:03;;;;;;;11.93;6.45;;;-1.10;99.90;;;;;;5096632;28;20047;-83
2022/03/06 01:15:31;;;;;;;10.13;6.35;;;-1.10;99.90;;;;;;5078507;28;20407;-83
2022/03/06 01:17:58;;;;;;;10.57;6.47;;;-1.10;99.90;;;;;;5078266;28;20135;-83
2022/03/06 01:20:25;;;;;;;9.80;6.43;;;-1.00;99.90;;;;;;5096023;28;20522;-83
2022/03/06 01:22:53;;;;;;;9.45;6.00;;;-1.00;99.90;;;;;;5096214;28;20068;-83
2022/03/06 01:25:20;;;;;;;10.93;6.93;;;-1.00;99.90;;;;;;5078227;28;20055;-83
2022/03/06 01:27:47;;;;;;;9.35;6.25;;;-1.00;99.90;;;;;;5078359;28;20153;-83
2022/03/06 01:30:21;;;;;;;9.77;6.22;;;-1.00;99.90;;;;;;5077593;28;20054;-83
2022/03/06 01:32:49;;;;;;;9.57;6.53;;;-1.00;99.90;;;;;;5095203;28;20052;-83
2022/03/06 01:35:16;;;;;;;9.30;6.47;;;-1.10;99.90;;;;;;5078378;28;20054;-83
2022/03/06 01:37:43;;;;;;;9.70;6.45;;;-1.10;99.90;;;;;;5077773;28;20047;-83
2022/03/06 01:40:12;;;;;;;11.20;6.68;;;-1.30;99.90;;;;;;5077361;28;20131;-83
2022/03/06 01:42:40;;;;;;;10.13;6.65;;;-1.30;99.90;;;;;;5077867;28;20151;-83
2022/03/06 01:45:11;;;;;;;9.00;6.82;;;-1.20;99.90;;;;;;5077524;28;20078;-83
2022/03/06 01:47:44;;;;;;;9.00;6.03;;;-1.40;99.90;;;;;;5077267;28;20079;-83
2022/03/06 01:50:15;;;;;;;11.05;7.25;;;-1.40;99.90;;;;;;5095382;28;20568;-83
2022/03/06 01:52:43;;;;;;;16.35;7.53;;;-1.40;99.90;;;;;;5077043;28;20563;-83
2022/03/06 01:55:11;;;;;;;9.52;6.65;;;-1.40;99.90;;;;;;5077124;28;20131;-83
2022/03/06 01:57:43;;;;;;;9.50;6.30;;;-1.40;99.90;;;;;;5077034;28;20050;-83
2022/03/06 02:00:17;;;;;;;8.00;6.25;;;-1.40;99.90;;;;;;5095492;28;20080;-83
2022/03/06 02:02:44;;;;;;;12.93;7.18;;;-1.60;99.90;;;;;;5077158;28;20484;-83
2022/03/06 02:05:12;;;;;;;9.05;6.60;;;-1.60;99.90;;;;;;5077211;28;20470;-83
2022/03/06 02:07:39;;;;;;;11.20;7.63;;;-1.60;99.90;;;;;;5077296;28;20047;-83
2022/03/06 02:10:08;;;;;;;15.07;8.13;;;-1.60;99.90;;;;;;5076878;28;20138;-83
2022/03/06 02:12:35;;;;;;;11.15;7.25;;;-1.60;99.90;;;;;;5077176;28;20075;-83
2022/03/06 02:15:05;;;;;;;12.15;7.53;;;-1.70;99.90;;;;;;5094474;28;20079;-83
2022/03/06 02:17:32;;;;;;;11.50;6.95;;;-1.80;99.90;;;;;;5076692;28;20059;-83
2022/03/06 02:20:04;;;;;;;13.98;8.23;;;-1.90;99.90;;;;;;5076582;28;20139;-83
2022/03/06 02:22:33;;;;;;;13.25;8.00;;;-1.90;99.90;;;;;;5094696;28;20515;-83
2022/03/06 02:25:09;;;;;;;13.45;7.93;;;-1.80;99.90;;;;;;5076599;28;20054;-83
2022/03/06 02:27:35;;;;;;;14.40;7.90;;;-1.70;99.90;;;;;;5076609;28;20051;-83
2022/03/06 02:30:16;;;;;;;14.80;8.30;;;-1.70;99.90;;;;;;5076455;28;20135;-83
2022/03/06 02:32:45;;;;;;;14.93;7.88;;;-1.70;99.90;;;;;;5076950;28;20052;-83
2022/03/06 02:35:12;;;;;;;8.65;6.70;;;-1.70;99.90;;;;;;5076292;28;20048;-83
2022/03/06 02:37:39;;;;;;;11.88;7.10;;;-1.70;99.90;;;;;;5076599;28;20483;-83
2022/03/06 02:40:10;;;;;;;11.40;6.85;;;-1.70;99.90;;;;;;5076202;28;20424;-83
2022/03/06 02:42:39;;;;;;;8.77;6.72;;;-1.60;99.90;;;;;;5093285;28;20131;-83
2022/03/06 02:45:20;;;;;;;9.25;6.43;;;-1.60;99.90;;;;;;5076289;28;20060;-83
2022/03/06 02:47:48;;;;;;;13.52;8.18;;;-1.60;99.90;;;;;;5076279;28;20048;-83
2022/03/06 02:50:19;;;;;;;9.52;6.65;;;-1.50;99.90;;;;;;5076222;28;20079;-83
2022/03/06 02:52:46;;;;;;;12.13;6.45;;;-1.40;99.90;;;;;;5094015;28;20051;-83
2022/03/06 02:55:14;;;;;;;12.27;7.22;;;-1.40;99.90;;;;;;5093958;28;20126;-83
2022/03/06 02:57:42;;;;;;;10.23;6.53;;;-1.40;99.90;;;;;;5094450;28;20592;-83
2022/03/06 03:00:12;;;;;;;10.85;7.28;;;-1.40;99.90;;;;;;5076574;28;20040;-83
2022/03/06 03:02:39;;;;;;;11.73;7.53;;;-1.30;99.90;;;;;;5076325;28;20055;-83
2022/03/06 03:05:07;;;;;;;10.90;7.72;;;-1.40;99.90;;;;;;5094344;28;20047;-83
2022/03/06 03:07:37;;;;;;;12.43;8.23;;;-1.50;99.90;;;;;;5094333;28;20119;-83
2022/03/06 03:10:05;;;;;;;13.10;7.07;;;-1.40;99.90;;;;;;5076556;28;20121;-83
2022/03/06 03:12:31;;;;;;;16.13;8.00;;;-1.30;99.90;;;;;;5094217;28;20124;-83
2022/03/06 03:14:58;;;;;;;10.60;7.05;;;-1.30;99.90;;;;;;5076226;28;20136;-83
2022/03/06 03:17:25;;;;;;;14.75;7.65;;;-1.30;99.90;;;;;;5076837;28;20126;-83
2022/03/06 03:19:52;;;;;;;15.13;7.85;;;-1.20;99.90;;;;;;5076121;28;20593;-83
2022/03/06 03:22:18;;;;;;;13.75;7.93;;;-1.20;99.90;;;;;;5094077;28;20090;-83
2022/03/06 03:24:45;;;;;;;11.52;7.63;;;-1.20;99.90;;;;;;5076200;28;20486;-83
2022/03/06 03:27:12;;;;;;;13.65;8.35;;;-1.10;99.90;;;;;;5075890;28;20139;-83
2022/03/06 03:29:39;;;;;;;11.57;7.40;;;-1.10;99.90;;;;;;5076199;28;20044;-83
2022/03/06 03:32:06;;;;;;;12.43;7.63;;;-1.10;99.90;;;;;;5076028;28;20083;-82
2022/03/06 03:34:33;;;;;;;14.18;8.00;;;-1.10;99.90;;;;;;5075545;28;20054;-83
2022/03/06 03:37:00;;;;;;;13.23;7.47;;;-1.10;99.90;;;;;;5093347;28;20044;-83
2022/03/06 03:39:27;;;;;;;13.55;7.22;;;-1.20;99.90;;;;;;5093864;28;20507;-83
2022/03/06 03:41:54;;;;;;;14.57;7.45;;;-1.20;99.90;;;;;;5075356;28;20123;-83
2022/03/06 03:44:20;;;;;;;15.88;7.57;;;-1.20;99.90;;;;;;5075583;28;20193;-83
2022/03/06 03:46:47;;;;;;;11.23;7.47;;;-1.20;99.90;;;;;;5075574;28;20087;-83
2022/03/06 03:49:14;;;;;;;12.50;7.55;;;-1.30;99.90;;;;;;5093496;28;20048;-83
2022/03/06 03:51:42;;;;;;;12.63;7.25;;;-1.30;99.90;;;;;;5075638;28;20131;-83
2022/03/06 03:54:09;;;;;;;11.10;7.22;;;-1.30;99.90;;;;;;5095426;28;20095;-83
2022/03/06 03:56:36;;;;;;;11.85;6.97;;;-1.30;99.90;;;;;;5079527;28;20051;-82
2022/03/06 03:59:03;;;;;;;9.60;6.95;;;-1.40;99.90;;;;;;5097748;28;20078;-83
2022/03/06 04:01:29;;;;;;;11.38;7.93;;;-1.40;99.90;;;;;;5079169;28;20130;-83
2022/03/06 04:03:56;;;;;;;10.75;6.82;;;-1.30;99.90;;;;;;5079192;28;20044;-83
2022/03/06 04:06:23;;;;;;;9.27;6.53;;;-1.30;99.90;;;;;;5079537;28;20127;-83
2022/03/06 04:08:50;;;;;;;11.05;6.70;;;-1.30;99.90;;;;;;5079291;28;20143;-83
2022/03/06 04:11:17;;;;;;;11.75;8.07;;;-1.30;99.90;;;;;;5079457;28;20443;-83
2022/03/06 04:13:44;;;;;;;10.82;6.75;;;-1.40;99.90;;;;;;5079148;28;20056;-83
2022/03/06 04:16:11;;;;;;;10.35;7.35;;;-1.40;99.90;;;;;;5079185;28;20466;-83
2022/03/06 04:18:38;;;;;;;13.73;7.13;;;-1.30;99.90;;;;;;5097021;28;20130;-83
2022/03/06 04:21:05;;;;;;;13.95;8.20;;;-1.40;99.90;;;;;;5096971;28;20127;-82
2022/03/06 04:23:31;;;;;;;10.52;7.18;;;-1.30;99.90;;;;;;5079042;28;20047;-82
2022/03/06 04:25:58;;;;;;;9.60;6.82;;;-1.40;99.90;;;;;;5096562;28;20079;-82
2022/03/06 04:28:25;;;;;;;12.57;7.45;;;-1.40;99.90;;;;;;5096861;28;20131;-83
2022/03/06 04:30:51;;;;;;;11.23;7.07;;;-1.40;99.90;;;;;;5096581;28;20051;-83
2022/03/06 04:33:18;;;;;;;11.85;7.68;;;-1.40;99.90;;;;;;5097105;28;20056;-82
2022/03/06 04:35:45;;;;;;;11.63;7.28;;;-1.30;99.90;;;;;;5078761;28;20076;-82
2022/03/06 04:38:12;;;;;;;17.23;8.27;;;-1.50;99.90;;;;;;5096756;28;20135;-83
2022/03/06 04:40:38;;;;;;;12.65;8.27;;;-1.50;99.90;;;;;;5078665;28;20048;-82
2022/03/06 04:43:05;;;;;;;12.60;7.82;;;-1.50;99.90;;;;;;5078703;28;20091;-83
2022/03/06 04:45:32;;;;;;;16.73;8.05;;;-1.40;99.90;;;;;;5096518;28;20408;-83
2022/03/06 04:47:59;;;;;;;11.20;7.30;;;-1.40;99.90;;;;;;5096391;28;20131;-82
2022/03/06 04:50:25;;;;;;;11.98;7.18;;;-1.40;99.90;;;;;;5096466;28;20040;-82
2022/03/06 04:52:52;;;;;;;13.43;7.25;;;-1.40;99.90;;;;;;5078921;28;20142;-83
2022/03/06 04:55:19;;;;;;;15.90;8.02;;;-1.40;99.90;;;;;;5078223;28;20044;-82
2022/03/06 04:57:46;;;;;;;11.07;7.40;;;-1.40;99.90;;;;;;5078380;28;20131;-83
2022/03/06 05:00:15;;;;;;;11.95;7.28;;;-1.40;99.90;;;;;;5095761;28;20044;-83
2022/03/06 05:02:41;;;;;;;14.02;7.38;;;-1.40;99.90;;;;;;5078184;28;20054;-82
2022/03/06 05:05:09;;;;;;;13.25;7.20;;;-1.40;99.90;;;;;;5076947;28;20040;-82
2022/03/06 05:07:36;;;;;;;12.15;7.03;;;-1.40;99.90;;;;;;5078440;28;20044;-83
2022/03/06 05:10:09;;;;;;;10.43;7.15;;;-1.50;99.90;;;;;;5078391;28;20127;-82
2022/03/06 05:12:37;;;;;;;10.63;7.67;;;-1.60;99.90;;;;;;5078363;28;20129;-83
2022/03/06 05:15:06;;;;;;;12.52;7.70;;;-1.70;99.90;;;;;;5078315;28;20289;-82
2022/03/06 05:17:36;;;;;;;14.15;7.63;;;-1.80;99.90;;;;;;5096142;28;20097;-82
2022/03/06 05:20:05;;;;;;;14.07;7.97;;;-1.70;99.90;;;;;;5078696;28;20417;-83
2022/03/06 05:22:31;;;;;;;12.15;7.20;;;-1.70;99.90;;;;;;5078725;28;20126;-82
2022/03/06 05:24:59;;;;;;;15.18;7.82;;;-1.70;99.90;;;;;;5078681;28;20399;-82
2022/03/06 05:27:26;;;;;;;11.18;8.00;;;-1.80;99.90;;;;;;5078083;28;20044;-83
2022/03/06 05:29:53;;;;;;;10.65;8.25;;;-1.90;99.90;;;;;;5096505;28;20044;-82
2022/03/06 05:32:21;;;;;;;14.45;8.60;;;-2.00;99.90;;;;;;5078448;28;20135;-83
2022/03/06 05:34:48;;;;;;;22.60;8.18;;;-1.80;99.90;;;;;;5096333;28;20087;-82
2022/03/06 05:37:14;;;;;;;12.68;8.05;;;-1.80;99.90;;;;;;5096948;28;20052;-82
2022/03/06 05:39:42;;;;;;;14.88;8.63;;;-1.80;99.90;;;;;;5078827;28;20565;-83
2022/03/06 05:42:08;;;;;;;11.95;8.15;;;-1.70;99.90;;;;;;5078468;28;20473;-83
2022/03/06 05:44:36;;;;;;;16.45;9.40;;;-1.70;99.90;;;;;;5096481;28;20048;-83
2022/03/06 05:47:04;;;;;;;11.88;7.78;;;-1.70;99.90;;;;;;5078238;28;20501;-83
2022/03/06 05:49:30;;;;;;;14.82;9.10;;;-1.70;99.90;;;;;;5078270;28;20135;-83
2022/03/06 05:51:57;;;;;;;15.98;9.77;;;-1.90;99.90;;;;;;5096197;28;20512;-83
2022/03/06 05:54:24;;;;;;;13.98;8.52;;;-2.00;99.90;;;;;;5078008;28;20083;-83
2022/03/06 05:56:52;;;;;;;15.30;8.38;;;-2.10;99.90;;;;;;5077940;28;20135;-83
2022/03/06 05:59:19;;;;;;;14.48;8.43;;;-2.10;99.90;;;;;;5078042;28;20501;-83
2022/03/06 06:01:46;;;;;;;12.68;8.73;;;-2.10;99.90;;;;;;5095955;28;20074;-83
2022/03/06 06:04:13;;;;;;;12.85;8.27;;;-2.30;99.90;;;;;;5095745;28;20040;-83
2022/03/06 06:06:40;;;;;;;12.95;8.43;;;-2.30;99.90;;;;;;5077964;28;20131;-83
2022/03/06 06:09:07;;;;;;;14.50;8.80;;;-2.40;99.90;;;;;;5077939;28;20075;-83
2022/03/06 06:11:34;;;;;;;14.30;8.43;;;-2.50;99.90;;;;;;5077895;28;20090;-83
2022/03/06 06:14:02;;;;;;;13.23;8.30;;;-2.50;99.90;;;;;;5077683;28;20051;-83
2022/03/06 06:16:29;;;;;;;13.35;8.23;;;-2.50;99.90;;;;;;5077705;28;20080;-83
2022/03/06 06:18:56;;;;;;;10.77;8.45;;;-2.50;99.90;;;;;;5078046;28;20070;-82
2022/03/06 06:21:23;;;;;;;16.95;8.85;;;-2.50;99.90;;;;;;5077912;28;20127;-82
2022/03/06 06:23:51;;;;;;;21.08;10.55;;;-2.40;99.90;;;;;;5095522;28;20081;-82
2022/03/06 06:26:18;;;;;;;21.23;9.73;;;-2.30;99.90;;;;;;5096060;28;20488;-83
2022/03/06 06:28:45;;;;;;;15.07;10.20;;;-2.10;99.90;;;;;;5099505;28;20066;-83
2022/03/06 06:31:11;;;;;;;13.45;8.90;;;-2.00;99.90;;;;;;5106158;28;20082;-83
2022/03/06 06:33:38;;;;;;;14.70;8.65;;;-1.90;99.90;;;;;;5082545;28;20143;-83
2022/03/06 06:36:06;;;;;;;23.88;13.85;;;-1.80;99.90;;;;;;5081903;28;20044;-83
2022/03/06 06:38:33;;;;;;;18.90;10.77;;;-1.60;99.90;;;;;;5099504;28;20055;-83
2022/03/06 06:41:00;;;;;;;22.25;13.50;;;-1.60;99.90;;;;;;5098584;28;20074;-83
2022/03/06 06:43:29;;;;;;;55.00;37.25;;;-1.50;99.90;;;;;;5097652;28;20055;-83
2022/03/06 06:45:56;;;;;;;20.58;15.00;;;-1.20;99.90;;;;;;5095887;28;20134;-83
2022/03/06 06:48:23;;;;;;;15.65;10.98;;;-1.10;99.90;;;;;;5094471;28;20135;-83
2022/03/06 06:50:50;;;;;;;16.55;10.73;;;-0.90;99.90;;;;;;5093848;28;20141;-83
2022/03/06 06:53:17;;;;;;;49.15;32.95;;;-0.70;99.90;;;;;;5094127;28;20131;-83
2022/03/06 06:55:44;;;;;;;121.78;77.70;;;-0.60;99.90;;;;;;5095160;28;20484;-82
2022/03/06 06:58:11;;;;;;;62.20;41.42;;;-0.50;99.90;;;;;;5077152;28;20565;-82
2022/03/06 07:00:38;;;;;;;34.70;23.30;;;-0.50;99.90;;;;;;5093980;28;20137;-83
2022/03/06 07:03:05;;;;;;;17.92;11.70;;;-0.40;99.90;;;;;;5093509;28;20052;-83
2022/03/06 07:05:32;;;;;;;22.70;13.93;;;-0.40;99.90;;;;;;5093066;28;20496;-82
2022/03/06 07:07:59;;;;;;;17.55;12.98;;;-0.30;99.90;;;;;;5092454;28;20134;-83
2022/03/06 07:10:25;;;;;;;24.50;14.00;;;-0.30;99.90;;;;;;5092631;28;20040;-82
2022/03/06 07:12:55;;;;;;;17.17;11.27;;;-0.20;99.90;;;;;;5092636;28;20131;-82
2022/03/06 07:15:28;;;;;;;17.70;9.88;;;-0.20;99.90;;;;;;5091823;28;20565;-82
2022/03/06 07:18:04;;;;;;;19.58;10.15;;;-0.10;99.90;;;;;;5075682;28;20071;-83
2022/03/06 07:20:31;;;;;;;20.67;10.43;;;0.00;99.90;;;;;;5092245;28;20076;-83
2022/03/06 07:23:01;;;;;;;20.23;11.38;;;0.10;99.90;;;;;;5092123;28;20101;-82
2022/03/06 07:25:28;;;;;;;15.32;9.88;;;0.30;99.90;;;;;;5075178;28;20071;-82
2022/03/06 07:27:54;;;;;;;15.93;10.55;;;0.40;99.90;;;;;;5075008;28;20470;-82
2022/03/06 07:30:21;;;;;;;16.63;9.45;;;0.50;99.90;;;;;;5091991;28;20062;-82
2022/03/06 07:32:51;;;;;;;16.35;9.77;;;0.60;99.90;;;;;;5075555;28;20432;-82
2022/03/06 07:35:20;;;;;;;16.35;9.77;;;0.60;99.90;;;;;;5075870;28;20327;-82
2022/03/06 07:37:47;;;;;;;16.98;9.55;;;0.60;99.90;;;;;;5075565;28;20059;-82
2022/03/06 07:40:16;;;;;;;15.23;9.00;;;0.60;99.90;;;;;;5075647;28;20060;-82
2022/03/06 07:42:44;;;;;;;13.75;9.00;;;0.50;99.90;;;;;;5075362;28;20050;-82
2022/03/06 07:45:11;;;;;;;14.70;9.65;;;0.60;99.90;;;;;;5075621;28;20419;-82
2022/03/06 07:47:38;;;;;;;18.75;9.20;;;0.60;99.90;;;;;;5075531;28;20547;-82
2022/03/06 07:50:07;;;;;;;14.75;9.80;;;0.60;99.90;;;;;;5075473;28;20597;-82
2022/03/06 07:52:35;;;;;;;25.45;9.75;;;0.80;99.90;;;;;;5076141;28;20086;-82
2022/03/06 07:55:02;;;;;;;17.63;8.07;;;0.70;99.90;;;;;;5075715;28;20496;-82
2022/03/06 07:57:29;;;;;;;22.58;8.90;;;0.60;99.90;;;;;;5093445;28;20058;-82
2022/03/06 07:59:56;;;;;;;30.77;10.23;;;0.50;99.90;;;;;;5075586;28;20557;-82
2022/03/06 08:02:22;;;;;;;20.83;9.65;;;0.40;99.90;;;;;;5091956;28;20040;-82
2022/03/06 08:04:49;;;;;;;23.17;9.07;;;0.30;99.90;;;;;;5093354;28;20048;-82
2022/03/06 08:07:16;;;;;;;24.55;9.82;;;0.20;99.90;;;;;;5075642;28;20135;-82
2022/03/06 08:09:42;;;;;;;24.20;9.98;;;0.30;99.90;;;;;;5093085;28;20565;-82
2022/03/06 08:12:09;;;;;;;17.73;10.10;;;0.40;99.90;;;;;;5075076;28;20102;-83
2022/03/06 08:14:36;;;;;;;19.02;9.90;;;0.50;99.90;;;;;;5091900;28;20500;-82
2022/03/06 08:17:03;;;;;;;19.85;10.18;;;0.70;99.90;;;;;;5071967;28;20123;-82
2022/03/06 08:19:30;;;;;;;17.60;10.73;;;0.70;99.90;;;;;;5083362;28;20105;-82
2022/03/06 08:21:56;;;;;;;19.90;11.35;;;0.90;99.90;;;;;;5066256;28;20123;-82
2022/03/06 08:24:23;;;;;;;21.40;15.18;;;1.00;99.90;;;;;;5063199;28;20170;-82
2022/03/06 08:26:50;;;;;;;21.88;12.07;;;1.00;99.90;;;;;;5074529;28;20131;-82
2022/03/06 08:29:16;;;;;;;24.63;18.00;;;1.00;99.90;;;;;;5054816;28;20119;-83
2022/03/06 08:31:43;;;;;;;17.63;11.30;;;0.90;99.90;;;;;;5055206;28;20053;-82
2022/03/06 08:34:10;;;;;;;19.38;13.65;;;0.80;99.90;;;;;;5072384;28;20083;-82
2022/03/06 08:36:37;;;;;;;18.23;10.98;;;0.90;99.90;;;;;;5059546;28;20075;-82
2022/03/06 08:39:05;;;;;;;16.08;11.30;;;1.20;99.90;;;;;;5077712;28;20455;-82
2022/03/06 08:41:32;;;;;;;16.02;11.75;;;1.20;99.90;;;;;;5077494;28;20062;-82
2022/03/06 08:43:58;;;;;;;16.55;11.35;;;1.30;99.90;;;;;;5077546;28;20091;-82
2022/03/06 08:46:26;;;;;;;15.07;10.88;;;1.50;99.90;;;;;;5059730;28;20044;-82
2022/03/06 08:48:53;;;;;;;20.20;11.75;;;1.60;99.90;;;;;;5060523;28;20416;-82
2022/03/06 08:51:20;;;;;;;16.60;12.10;;;1.80;99.90;;;;;;5059606;28;20127;-82
2022/03/06 08:53:53;;;;;;;18.52;11.75;;;1.70;99.90;;;;;;5059936;28;20127;-82
2022/03/06 08:56:19;;;;;;;20.83;11.98;;;1.80;99.90;;;;;;5064968;28;20385;-82
2022/03/06 08:58:46;;;;;;;20.75;12.98;;;1.80;99.90;;;;;;5080053;28;20161;-82
2022/03/06 09:01:13;;;;;;;18.88;12.48;;;1.80;99.90;;;;;;5068663;28;20111;-82
2022/03/06 09:03:40;;;;;;;17.85;11.82;;;2.00;99.90;;;;;;5087250;28;20054;-82
2022/03/06 09:06:07;;;;;;;18.27;13.55;;;2.10;99.90;;;;;;5094808;28;20050;-82
2022/03/06 09:08:33;;;;;;;59.35;32.33;;;2.20;99.90;;;;;;5095512;28;20056;-82
2022/03/06 09:11:00;;;;;;;20.92;14.43;;;2.10;99.90;;;;;;5094362;28;20485;-82
2022/03/06 09:13:27;;;;;;;14.90;11.13;;;2.00;99.90;;;;;;5077374;28;20126;-83
2022/03/06 09:15:53;;;;;;;16.05;11.23;;;2.30;99.90;;;;;;5095639;28;20127;-82
2022/03/06 09:18:20;;;;;;;24.95;14.07;;;2.60;99.90;;;;;;5095152;28;20123;-82
2022/03/06 09:20:47;;;;;;;97.72;42.10;;;2.40;99.90;;;;;;5094313;28;20084;-82
2022/03/06 09:23:14;;;;;;;50.88;24.23;;;2.40;99.90;;;;;;5096901;28;20048;-82
2022/03/06 09:25:41;;;;;;;22.65;13.57;;;2.50;99.90;;;;;;5097150;28;20493;-82
2022/03/06 09:28:08;;;;;;;25.92;17.60;;;2.90;99.90;;;;;;5095547;28;20118;-82
2022/03/06 09:30:35;;;;;;;20.25;12.07;;;2.80;99.90;;;;;;5078855;28;20135;-82
2022/03/06 09:33:02;;;;;;;18.55;11.40;;;2.70;99.90;;;;;;5095760;28;20055;-82
2022/03/06 09:35:29;;;;;;;15.18;11.35;;;3.00;99.90;;;;;;5095617;28;20051;-82
2022/03/06 09:37:56;;;;;;;17.75;10.60;;;3.30;99.90;;;;;;5095470;28;20132;-82
2022/03/06 09:40:23;;;;;;;16.42;10.98;;;3.80;99.90;;;;;;5096687;28;20107;-82
2022/03/06 09:42:50;;;;;;;13.23;9.57;;;4.00;99.90;;;;;;5096562;28;20126;-82
2022/03/06 09:45:20;;;;;;;13.43;10.77;;;4.00;99.90;;;;;;5078411;28;20055;-82
2022/03/06 09:47:47;;;;;;;15.68;10.95;;;4.60;99.90;;;;;;5078178;28;20079;-82
2022/03/06 09:50:15;;;;;;;13.10;10.75;;;4.90;99.90;;;;;;5095404;28;20051;-82
2022/03/06 09:52:43;;;;;;;13.02;10.23;;;5.00;99.90;;;;;;5078001;28;20132;-82
2022/03/06 09:55:11;;;;;;;12.52;9.15;;;5.20;99.90;;;;;;5096380;28;20051;-82
2022/03/06 09:57:38;;;;;;;15.32;9.52;;;5.50;99.90;;;;;;5096513;28;20048;-82
2022/03/06 10:00:08;;;;;;;13.57;10.30;;;6.00;99.90;;;;;;5078522;28;20130;-82
2022/03/06 10:03:13;;;;;;;16.80;10.07;;;6.30;99.90;;;;;;5096307;28;20044;-82
2022/03/06 10:05:39;;;;;;;;;;;6.30;99.80;;;;;;5096156;28;20103;-82
2022/03/06 10:08:26;;;;;;;13.23;9.23;;;6.00;99.50;;;;;;5077762;28;20368;-82
2022/03/06 10:11:01;;;;;;;15.15;9.77;;;6.00;99.20;;;;;;5095999;28;20126;-82
2022/03/06 10:13:36;;;;;;;18.00;9.00;;;5.20;99.90;;;;;;5077676;28;20105;-82
2022/03/06 10:16:08;;;;;;;13.80;9.23;;;6.00;99.90;;;;;;5078005;28;20138;-81
2022/03/06 10:18:47;;;;;;;12.32;9.10;;;6.40;98.90;;;;;;5077849;28;20048;-82
2022/03/06 10:21:28;;;;;;;13.73;9.93;;;6.90;96.40;;;;;;5077781;28;20524;-82
2022/03/06 10:24:08;;;;;;;10.85;8.40;;;8.00;93.90;;;;;;5074604;28;20104;-82
2022/03/06 10:26:36;;;;;;;11.57;8.40;;;8.70;87.10;;;;;;5061786;28;20498;-82
2022/03/06 10:29:09;;;;;;;16.75;11.25;;;9.70;77.30;;;;;;5089143;28;20079;-83
2022/03/06 10:31:37;;;;;;;12.95;8.50;;;8.80;79.80;;;;;;5076645;28;20130;-83
2022/03/06 10:34:09;;;;;;;10.40;7.82;;;9.70;78.40;;;;;;5094858;28;20052;-82
2022/03/06 10:36:39;;;;;;;9.93;6.40;;;9.60;71.80;;;;;;5083910;28;20052;-83
2022/03/06 10:39:17;;;;;;;6.53;5.72;;;8.90;74.20;;;;;;5101653;28;20052;-82
2022/03/06 10:41:47;;;;;;;8.23;6.53;;;8.50;73.50;;;;;;5106638;28;20052;-83
2022/03/06 10:44:16;;;;;;;10.50;8.65;;;8.10;75.50;;;;;;5080958;28;20044;-83
2022/03/06 10:46:59;;;;;;;11.07;6.88;;;7.20;78.20;;;;;;5086874;28;20139;-83
2022/03/06 10:49:27;;;;;;;11.77;6.93;;;7.00;82.00;;;;;;5094503;28;20044;-83
2022/03/06 10:51:54;;;;;;;9.30;6.20;;;6.40;81.10;;;;;;5093036;28;20075;-83
2022/03/06 10:54:21;;;;;;;10.90;6.35;;;6.60;81.80;;;;;;5089288;28;20044;-84
2022/03/06 10:56:50;;;;;;;24.92;11.48;;;6.70;79.30;;;;;;5087897;28;20162;-83
2022/03/06 10:59:26;;;;;;;14.88;11.10;;;6.40;79.60;;;;;;5083542;28;20105;-83
2022/03/06 11:01:54;;;;;;;23.90;15.50;;;6.10;81.70;;;;;;5100993;28;20117;-84
2022/03/06 11:04:21;;;;;;;11.98;7.72;;;6.10;82.40;;;;;;5099519;28;20044;-83
2022/03/06 11:06:51;;;;;;;9.52;5.75;;;6.00;82.10;;;;;;5086190;28;20050;-84
2022/03/06 11:09:19;;;;;;;29.75;21.75;;;6.10;82.20;;;;;;5082277;28;20047;-83
2022/03/06 11:11:48;;;;;;;31.27;16.30;;;5.90;80.70;;;;;;5084352;28;20055;-83
2022/03/06 11:14:15;;;;;;;8.85;6.32;;;5.30;81.90;;;;;;5086128;28;20125;-82
2022/03/06 11:16:42;;;;;;;9.27;6.53;;;4.90;83.50;;;;;;5083603;28;20148;-84
2022/03/06 11:19:10;;;;;;;9.25;6.60;;;4.80;83.90;;;;;;5103328;28;20104;-83
2022/03/06 11:21:43;;;;;;;13.10;10.40;;;4.40;84.50;;;;;;5085030;28;20056;-84
2022/03/06 11:24:12;;;;;;;8.30;6.40;;;4.40;86.50;;;;;;5083788;28;20063;-83
2022/03/06 11:27:08;;;;;;;8.77;6.45;;;4.60;87.20;;;;;;5083287;28;20089;-82
2022/03/06 11:29:53;;;;;;;10.55;7.15;;;4.70;87.70;;;;;;5083561;28;20040;-84
2022/03/06 11:32:26;;;;;;;8.82;5.75;;;4.50;86.20;;;;;;5078578;28;20044;-82
2022/03/06 11:35:00;;;;;;;9.60;5.40;;;4.20;86.90;;;;;;5095989;28;20074;-83
2022/03/06 11:37:28;;;;;;;16.88;6.13;;;4.40;87.20;;;;;;5078297;28;20075;-83
2022/03/06 11:39:55;;;;;;;7.45;5.88;;;4.30;87.70;;;;;;5077985;28;20082;-82
2022/03/06 11:42:44;;;;;;;11.35;9.07;;;4.00;88.90;;;;;;5078374;28;20075;-83
2022/03/06 11:45:16;;;;;;;9.43;5.68;;;3.70;91.10;;;;;;5104026;28;20128;-83
2022/03/06 11:47:43;;;;;;;9.23;7.10;;;3.60;91.30;;;;;;5084861;28;20070;-82
2022/03/06 11:50:21;;;;;;;7.60;5.80;;;3.40;92.40;;;;;;5084427;28;20067;-83
2022/03/06 11:52:47;;;;;;;9.88;6.35;;;3.40;92.60;;;;;;5102911;28;20056;-83
2022/03/06 11:55:32;;;;;;;7.75;5.60;;;3.30;92.20;;;;;;5102330;28;20055;-83
2022/03/06 11:57:59;;;;;;;6.93;5.10;;;3.10;92.70;;;;;;5085309;28;20063;-83
2022/03/06 12:00:30;;;;;;;9.02;5.43;;;3.10;93.10;;;;;;5084799;28;20523;-83
2022/03/06 12:02:59;;;;;;;6.55;4.82;;;3.10;92.10;;;;;;5079659;28;20440;-83
2022/03/06 12:05:48;;;;;;;6.45;5.07;;;3.20;91.00;;;;;;5076916;28;20131;-83
2022/03/06 12:08:19;;;;;;;9.88;5.38;;;3.30;90.50;;;;;;5077836;28;20501;-83
2022/03/06 12:10:47;;;;;;;7.50;4.45;;;3.60;90.40;;;;;;5098880;28;20044;-82
2022/03/06 12:13:21;;;;;;;8.13;5.22;;;3.70;90.00;;;;;;5085294;28;20051;-84
2022/03/06 12:16:04;;;;;;;8.43;4.40;;;3.70;89.70;;;;;;5087522;28;20149;-84
2022/03/06 12:18:32;;;;;;;5.13;4.43;;;3.60;89.40;;;;;;5087435;28;20052;-84
2022/03/06 12:20:59;;;;;;;5.53;4.47;;;3.60;88.00;;;;;;5105308;28;20048;-84
2022/03/06 12:23:28;;;;;;;5.40;4.25;;;3.70;86.40;;;;;;5086632;28;20116;-84
2022/03/06 12:25:58;;;;;;;4.78;4.38;;;3.80;85.20;;;;;;5088137;28;20089;-83
2022/03/06 12:28:27;;;;;;;5.95;4.20;;;3.70;85.20;;;;;;5087798;28;20044;-85
2022/03/06 12:30:55;;;;;;;6.78;4.80;;;3.50;84.60;;;;;;5081708;28;20048;-84
2022/03/06 12:33:40;;;;;;;5.32;4.13;;;3.30;85.00;;;;;;5083640;28;20080;-83
2022/03/06 12:36:16;;;;;;;5.93;4.53;;;3.30;86.40;;;;;;5078808;28;20083;-81
2022/03/06 12:38:45;;;;;;;13.88;4.45;;;3.30;85.30;;;;;;5078706;28;20080;-82
2022/03/06 12:41:12;;;;;;;4.78;4.18;;;3.50;84.80;;;;;;5080444;28;20072;-81
2022/03/06 12:44:06;;;;;;;6.32;4.78;;;3.30;84.20;;;;;;5083106;28;20040;-85
2022/03/06 12:46:33;;;;;;;;;;;3.30;82.80;;;;;;5083955;28;20040;-84
2022/03/06 12:49:00;;;;;;;7.22;4.35;;;3.50;81.70;;;;;;5087758;28;20449;-83